Georgia  Logo

Acworth, GA Single Family Real Estate Listings

614 Total Real Estate Listings * Click on table heading to sort
Date Posted Property Type Style Address Price Living Area Lot Size Price/Sq Ft.
2017-06-26 Single Family Ranch 10 Dripping Roack Trail Acworth, GA 30101 $106,000
2017-06-26 Single Family Traditional 2823 Quince Lane Acworth, GA 30101 $210,711 2,420 sq. ft. 10,324 sq. ft. $87
2017-06-26 Single Family Traditional 2344 Wavetree Ln Nw Acworth, GA 30101 $169,900 1,600 sq. ft. 5,053 sq. ft. $106
2017-06-26 Single Family 5200 Deweberry Rd Acworth, GA 30101 $100,000 34,848 sq. ft.
2017-06-26 Single Family Country/Rustic; Mobile Home 7307 Red Oak Dr Acworth, GA 30102 $79,900 32,147 sq. ft.
2017-06-26 Single Family Ranch 4352 Creek Trl Acworth, GA 30102 $40,000 20,081 sq. ft.
2017-06-26 Single Family Traditional 4430 Hickory Chase Dr Acworth, GA 30102 $219,900
2017-06-25 Single Family Craftsman 1686 Tipton Way Acworth, GA 30101 $410,000 3,772 sq. ft. 12,632 sq. ft. $109
2017-06-25 Single Family Traditional 143 Paddington Pl Acworth, GA 30101 $279,900 2,845 sq. ft. 13,939 sq. ft. $98
2017-06-25 Single Family Country/Rustic; Ranch 2494 Baker Rd Acworth, GA 30101 $95,000 39,204 sq. ft.
2017-06-25 Single Family Traditional 209 Lincolnwood Ln Acworth, GA 30101 $234,500 1,954 sq. ft. 11,761 sq. ft. $120
2017-06-23 Single Family Traditional 3168 Forest Grove Trl Acworth, GA 30101 $265,000 7,841 sq. ft.
2017-06-23 Single Family 579 Oakside Place Acworth, GA 30102 $155,000
2017-06-23 Single Family Traditional 3490 Saville Ct Acworth, GA 30101 $649,900 6,364 sq. ft. 43,865 sq. ft. $102
2017-06-23 Single Family Traditional 5352 Thornapple Ln Acworth, GA 30101 $505,000 7,012 sq. ft. 24,524 sq. ft. $72
2017-06-23 Single Family Traditional 53 Vine Creek Pl Acworth, GA 30101 $339,900 3,435 sq. ft. 16,988 sq. ft. $99
2017-06-23 Single Family Traditional 3172 Forest Grove Trl Acworth, GA 30101 $225,000 2,441 sq. ft. 7,405 sq. ft. $92
2017-06-23 Single Family Ranch; Traditional 5115 Centennial Creek Vw Acworth, GA 30102 $194,900 1,576 sq. ft. 8,712 sq. ft. $124
2017-06-23 Single Family Traditional 32 Tanglewood Ct Acworth, GA 30101 $175,000 37,897 sq. ft.
2017-06-23 Single Family Contemporary 1164 Reading Dr Acworth, GA 30102 $182,000 2,082 sq. ft. 17,772 sq. ft. $87
2017-06-23 Single Family Ranch 5431 Brookview Ct Acworth, GA 30102 $189,900 1,800 sq. ft. 22,303 sq. ft. $106
2017-06-22 Single Family Craftsman; Traditional 846 Whisperwood Trl Acworth, GA 30102 $260,870 2,171 sq. ft. 6,534 sq. ft. $120
2017-06-22 Single Family Traditional 2349 Wavetree Ln Acworth, GA 30101 $180,000 5,227 sq. ft.
2017-06-22 Single Family Traditional 2497 Stonegate Dr Acworth, GA 30101 $135,000 1,420 sq. ft. $95
2017-06-22 Single Family Traditional 333 Liberty Dr Acworth, GA 30102 $425,000 4,144 sq. ft. 10,019 sq. ft. $103
2017-06-22 Single Family Traditional 104 Logan Cole Dr Acworth, GA 30102 $190,400 2,696 sq. ft. 30,056 sq. ft. $71
2017-06-22 Single Family Traditional 820 Moonlit Ln Acworth, GA 30102 $118,000
2017-06-22 Single Family 204 Ridge Mill Dr Acworth, GA 30102 $149,900
2017-06-22 Single Family Craftsman 647 Wexford Ct Acworth, GA 30102 $363,800
2017-06-22 Single Family Craftsman 145 Dunlavin Dr Acworth, GA 30102 $391,500
2017-06-22 Single Family Craftsman 845 Tramore Rd Acworth, GA 30102 $346,600
2017-06-22 Single Family Contemporary 1600 Shadowbrook Dr Acworth, GA 30102 $185,000 1,600 sq. ft. 23,958 sq. ft. $116
2017-06-22 Single Family Traditional 100 Browning Cir Acworth, GA 30101 $155,000 1,191 sq. ft. 27,443 sq. ft. $130
2017-06-21 Single Family Craftsman; Traditional 4165 Elderberry Dr Acworth, GA 30101 $259,000 2,430 sq. ft. 11,761 sq. ft. $107
2017-06-21 Single Family 4448 Thorngate Ln Acworth, GA 30101 $144,900
2017-06-21 Single Family Traditional 1690 Brookgreen Vw Acworth, GA 30101 $400,000 5,090 sq. ft. 16,553 sq. ft. $79
2017-06-21 Single Family Traditional 4205 Ruby Lee Dr Acworth, GA 30101 $230,000 10,019 sq. ft.
2017-06-21 Single Family Craftsman 73 Lilyfield Ln Acworth, GA 30101 $329,000 3,209 sq. ft. 10,454 sq. ft. $103
2017-06-21 Single Family Traditional 1078 Athena Ct Acworth, GA 30101 $164,000 2,128 sq. ft. 8,973 sq. ft. $77
2017-06-21 Single Family Ranch; Traditional 918 Bentwater Dr Acworth, GA 30101 $300,000 17,860 sq. ft.
2017-06-21 Single Family Traditional 3152 Forest Grove Trl Acworth, GA 30101 $289,900 4,991 sq. ft. 7,841 sq. ft. $58
2017-06-21 Single Family Ranch 97 Old Burnt Hickory Rd Acworth, GA 30101 $225,000 1,911 sq. ft. 20,038 sq. ft. $118
2017-06-21 Single Family Traditional 4839 Lake Park Ln Acworth, GA 30101 $205,000 1,685 sq. ft. 8,494 sq. ft. $122
2017-06-21 Single Family Contemporary 6748 Galts Ferry Rd Acworth, GA 30102 $172,000 22,564 sq. ft.
2017-06-21 Single Family European 3764 Laurel Green Way Acworth, GA 30101 $179,900 1,872 sq. ft. 10,934 sq. ft. $96
2017-06-21 Single Family Craftsman; Traditional 5136 Acworth Landing Dr Acworth, GA 30101 $185,000 1,886 sq. ft. 3,920 sq. ft. $98
2017-06-21 Single Family Craftsman 3954 Southside Dr Acworth, GA 30101 $100,000 1,196 sq. ft. $84
2017-06-20 Single Family Traditional 103 Mcevers Branch Lndg Acworth, GA 30101 $315,000 3,785 sq. ft. 24,829 sq. ft. $83
2017-06-20 Single Family Traditional 4542 Peppermill Pl Acworth, GA 30101 $199,000 21,301 sq. ft.
2017-06-20 Single Family Traditional 238 Golf Crest Dr Acworth, GA 30101 $409,900 5,045 sq. ft. 30,928 sq. ft. $81
2017-06-20 Single Family Traditional 459 Ridgetop Dr Acworth, GA 30102 $179,900 1,644 sq. ft. 20,909 sq. ft. $109
2017-06-20 Single Family Craftsman; Traditional 4951 Aviary Dr Acworth, GA 30101 $600,000 51,836 sq. ft.
2017-06-20 Single Family Traditional 5225 Bridgewater Dr Acworth, GA 30101 $495,000 2,890 sq. ft. 23,435 sq. ft. $171
2017-06-20 Single Family Traditional 124 Tyson Woods Acworth, GA 30102 $190,000 1,742 sq. ft.
2017-06-20 Single Family Ranch; Traditional 4866 Lake Park Ln Acworth, GA 30101 $162,500 1,360 sq. ft. 8,494 sq. ft. $119
2017-06-19 Single Family Traditional 2354 Starr Lake Dr Acworth, GA 30101 $460,000 5,232 sq. ft. 15,246 sq. ft. $88
2017-06-19 Single Family Traditional 116 Reunion Pl Acworth, GA 30102 $355,264
2017-06-19 Single Family Traditional 1813 Crescent Hill Dr Acworth, GA 30102 $176,000 6,665 sq. ft.
2017-06-19 Single Family Traditional 366 Franklin Ln Acworth, GA 30102 $217,345 1,937 sq. ft. $112
2017-06-19 Single Family Traditional 3146 Forest Grove Trl Acworth, GA 30101 $285,000 3,619 sq. ft. 7,841 sq. ft. $79
2017-06-19 Single Family Traditional 6216 Benbrooke Dr Acworth, GA 30101 $500,000 14,985 sq. ft.
2017-06-19 Single Family Traditional 919 Grandview Way Acworth, GA 30101 $300,000 15,246 sq. ft.
2017-06-19 Single Family Traditional 23 Hayworth Pl Acworth, GA 30101 $489,900 6,379 sq. ft. 27,443 sq. ft. $77
2017-06-18 Single Family Traditional 120 Freedom Dr Acworth, GA 30102 $235,000 1,927 sq. ft. $122
2017-06-17 Single Family Traditional 4974 Lake Park Cir Acworth, GA 30101 $192,500 1,338 sq. ft. 9,757 sq. ft. $144
2017-06-17 Single Family Traditional 5592 Hedge Brooke Dr Acworth, GA 30101 $365,000 4,572 sq. ft. 13,416 sq. ft. $80
2017-06-16 Single Family Craftsman 2311 Starr Lake Dr Acworth, GA 30101 $479,900 3,170 sq. ft. 16,117 sq. ft. $151
2017-06-16 Single Family Ranch 4648 Adams Ln Acworth, GA 30102 $189,000
2017-06-16 Single Family Traditional 109 Victory Commons Dr Acworth, GA 30102 $325,000 2,974 sq. ft. 10,019 sq. ft. $109
2017-06-16 Single Family Traditional 368 Carl Sanders Dr Acworth, GA 30101 $1,395,000 48,352 sq. ft.
2017-06-16 Single Family Traditional 5308 Burdock Crk Acworth, GA 30101 $389,000 4,277 sq. ft. 30,144 sq. ft. $91
2017-06-16 Single Family Traditional 5036 Oak Hollow Dr Acworth, GA 30102 $299,000 8,276 sq. ft.
2017-06-16 Single Family Traditional 312 Sable Trace Pass Acworth, GA 30102 $284,000 43,124 sq. ft.
2017-06-16 Single Family Traditional 3828 Autumn View Ln Acworth, GA 30101 $245,000 2,140 sq. ft. 36,590 sq. ft. $114
2017-06-16 Single Family Traditional 268 Lilyfield Ln Acworth, GA 30101 $239,900 2,290 sq. ft. 17,424 sq. ft. $105
2017-06-15 Single Family Traditional 2702 Abbotts Glen Pl Acworth, GA 30101 $219,900 11,761 sq. ft.
2017-06-15 Single Family Traditional 116 Dream Ct Acworth, GA 30102 $237,720 2,361 sq. ft. $101
2017-06-15 Single Family Cluster; Traditional 393 Windcroft Cir Acworth, GA 30101 $150,000 4,356 sq. ft.
2017-06-15 Single Family Craftsman; Traditional 1722 Brooks Farm Dr Acworth, GA 30101 $500,000 3,150 sq. ft. 12,197 sq. ft. $159
2017-06-15 Single Family Traditional 1842 Valerie Ct Acworth, GA 30101 $529,900 4,379 sq. ft. 20,038 sq. ft. $121
2017-06-15 Single Family Traditional 674 Chestatee Creek Dr Acworth, GA 30101 $435,000 4,235 sq. ft. 20,038 sq. ft. $103
2017-06-15 Single Family Traditional 661 Braidwood Dr Acworth, GA 30101 $315,000 18,905 sq. ft.
2017-06-15 Single Family Traditional 3908 Spearmint Ln Acworth, GA 30101 $247,500 3,379 sq. ft. 9,148 sq. ft. $73
2017-06-15 Single Family Cluster; Traditional 116 Oak Grove Pl Acworth, GA 30102 $150,000
2017-06-14 Single Family Traditional 4765 Rapids Acworth, GA 30102 $270,000 4,185 sq. ft. $65
2017-06-14 Single Family Traditional 105 Reunion Pl Acworth, GA 30102 $367,089
2017-06-14 Single Family Traditional 110 Reunion Pl Acworth, GA 30102 $319,582
2017-06-14 Single Family Traditional 1173 Ridgeside Dr Acworth, GA 30102 $159,000 2,580 sq. ft. 19,820 sq. ft. $62
2017-06-14 Single Family Craftsman; Traditional 23 Harmony Grove Pkwy Acworth, GA 30101 $271,470
2017-06-14 Single Family Traditional 232 Fairway View Xing Acworth, GA 30101 $259,900 2,452 sq. ft. 12,197 sq. ft. $106
2017-06-14 Single Family Mobile Home 121 Ridgeway Ct Acworth, GA 30101 $33,500 1,248 sq. ft. 21,039 sq. ft. $27
2017-06-14 Single Family Traditional 4846 Lake Park Ter Acworth, GA 30101 $189,900 8,015 sq. ft.
2017-06-14 Single Family Cape Cod 22 Moonlight Dr Acworth, GA 30102 $219,000 23,958 sq. ft.
2017-06-13 Single Family Traditional 378 Franklin Ln Acworth, GA 30102 $172,990 1,857 sq. ft. $93
2017-06-13 Single Family Traditional 108 Reunion Pl Acworth, GA 30102 $380,764
2017-06-13 Single Family Traditional 107 Reunion Pl Acworth, GA 30102 $344,282
2017-06-13 Single Family 3191 Mckinley Ct Acworth, GA 30101 $208,900 1,616 sq. ft. $129
2017-06-13 Single Family Traditional 3973 Abernathy Farm Way Acworth, GA 30101 $179,999
2017-06-13 Single Family Cluster; Other (See Remarks) 740 Windcroft Acworth, GA 30101 $155,000
2017-06-13 Single Family Traditional 1535 Boxwood Trce Acworth, GA 30102 $219,900 2,464 sq. ft. 22,564 sq. ft. $89
2017-06-13 Single Family Traditional 2943 Baker Acworth, GA 30101 $169,900 21,780 sq. ft.
2017-06-13 Single Family Traditional 1167 Flagstone Way Acworth, GA 30101 $295,000 2,840 sq. ft. 19,602 sq. ft. $104
2017-06-13 Single Family Traditional 4909 Zachary Ct Acworth, GA 30101 $319,900 2,109 sq. ft. 10,454 sq. ft. $152
2017-06-12 Single Family Traditional 224 Vine Creek Dr Acworth, GA 30101 $379,900 2,812 sq. ft. 12,632 sq. ft. $135
2017-06-12 Single Family Contemporary 5120 Highland Trl Acworth, GA 30102 $185,000 1,650 sq. ft. 34,412 sq. ft. $112
2017-06-12 Single Family Cape Cod; Traditional 221 Windcroft Cir Acworth, GA 30101 $155,000 1,286 sq. ft. 5,663 sq. ft. $121
2017-06-12 Single Family Cabin 2852 Baker Acworth, GA 30101 $299,900 47,916 sq. ft.
2017-06-12 Single Family Traditional 109 Reunion Pl Acworth, GA 30102 $322,519
2017-06-12 Single Family Traditional 3126 Delacorte Dr Acworth, GA 30101 $235,000 6,534 sq. ft.
2017-06-12 Single Family Ranch 4003 Mcpherson Acworth, GA 30101 $214,900 11,326 sq. ft.
2017-06-12 Single Family Craftsman; Traditional 6456 Farm Scenic Vw Acworth, GA 30101 $515,000 15,246 sq. ft.
2017-06-12 Single Family Craftsman; Traditional 6450 Farm Scenic Vw Acworth, GA 30101 $519,900 3,700 sq. ft. 21,780 sq. ft. $141
2017-06-12 Single Family Traditional 130 Dunlavin Dr Acworth, GA 30102 $352,000 3,748 sq. ft. 8,276 sq. ft. $94
2017-06-12 Single Family Ranch 72 Ruth Ln Acworth, GA 30101 $249,900 41,382 sq. ft.
2017-06-11 Single Family Traditional 2004 Maple Ridge Acworth, GA 30101 $212,000 5,663 sq. ft.
2017-06-10 Single Family Traditional 4636 Saddle Gate Ln Acworth, GA 30101 $345,000 3,041 sq. ft. 12,197 sq. ft. $113
2017-06-10 Single Family Traditional 2706 Stilesboro Ln Acworth, GA 30101 $425,000 3,224 sq. ft. 30,492 sq. ft. $132
2017-06-10 Single Family Traditional 1533 Boxwood Trce Acworth, GA 30102 $230,000 22,346 sq. ft.
2017-06-10 Single Family Craftsman 309 Highcrest Dr Acworth, GA 30101 $376,000 3,150 sq. ft. 17,860 sq. ft. $119
2017-06-10 Single Family Craftsman 3806 Heartleaf Dr Acworth, GA 30101 $274,900 2,498 sq. ft. 47,916 sq. ft. $110
2017-06-09 Single Family Ranch 363 Old Burnt Hickory Rd Acworth, GA 30101 $698,550 1,968 sq. ft. 413,820 sq. ft. $355
2017-06-09 Single Family Traditional 5417 Hedge Brooke Cv Acworth, GA 30101 $360,000 3,645 sq. ft. 20,038 sq. ft. $99
2017-06-09 Single Family Traditional 231 Mcevers Branch Lndg Acworth, GA 30101 $314,900 3,280 sq. ft. 14,375 sq. ft. $96
2017-06-09 Single Family Traditional 6247 Little Ridge Rd Acworth, GA 30102 $240,000 24,829 sq. ft.
2017-06-09 Single Family Traditional 2543 Howell Farms Way Acworth, GA 30101 $223,000 2,289 sq. ft. 12,632 sq. ft. $97
2017-06-09 Single Family Ranch 4214 Bridlecreek Dr Acworth, GA 30101 $265,000 2,220 sq. ft. 16,422 sq. ft. $119
2017-06-09 Single Family Craftsman; Traditional 122 Plantation Way Acworth, GA 30101 $180,000 20,038 sq. ft.
2017-06-09 Single Family Traditional 5944 Downington Ridge Acworth, GA 30101 $495,000 5,608 sq. ft. 17,947 sq. ft. $88
2017-06-09 Single Family Traditional 425 Delphinium Ct Acworth, GA 30102 $365,000 23,087 sq. ft.
2017-06-09 Single Family Traditional 5099 Verbena Dr Acworth, GA 30102 $325,000 13,591 sq. ft.
2017-06-09 Single Family Craftsman 3597 High Battery Bluff Acworth, GA 30101 $229,900
2017-06-09 Single Family Traditional 4220 Terrace Dr Acworth, GA 30101 $150,000 1,404 sq. ft. 8,276 sq. ft. $107
2017-06-08 Single Family Craftsman 113 Hickory Lake Dr Acworth, GA 30101 $240,000
2017-06-08 Single Family Traditional 1613 Fernstone Dr Acworth, GA 30101 $525,000 4,175 sq. ft. 14,375 sq. ft. $126
2017-06-08 Single Family Traditional 4639 Old Stilersboro Rd Acworth, GA 30101 $549,000 301,435 sq. ft.
2017-06-08 Single Family Ranch 4536 Alaspair Ln Acworth, GA 30101 $229,900 7,405 sq. ft.
2017-06-08 Single Family Traditional 5910 Downington Pl Acworth, GA 30101 $525,000 15,246 sq. ft.
2017-06-08 Single Family Country/Rustic; Traditional 5571 Fallsbrook Trce Acworth, GA 30101 $435,000 17,642 sq. ft.
2017-06-08 Single Family Traditional 1709 Niagara Ct Acworth, GA 30102 $264,000 8,886 sq. ft.
2017-06-08 Single Family Traditional 4990 Centennial Hill Walk Acworth, GA 30102 $229,900 2,633 sq. ft. 8,276 sq. ft. $87
2017-06-08 Single Family Traditional 4810 Liberty Plz Acworth, GA 30101 $209,000 4,356 sq. ft.
2017-06-08 Single Family Traditional 5606 Brookstone Dr Acworth, GA 30101 $309,000 2,746 sq. ft. 18,295 sq. ft. $113
2017-06-07 Single Family Craftsman; Traditional 107 Blazing Ridge Way Acworth, GA 30101 $545,000 4,500 sq. ft. 16,988 sq. ft. $121
2017-06-07 Single Family Traditional 169 Shaw Dr Acworth, GA 30102 $429,900 3,961 sq. ft. 10,019 sq. ft. $109
2017-06-07 Single Family Traditional 6173 Braidwood Ave Acworth, GA 30101 $359,900 4,529 sq. ft. 14,375 sq. ft. $79
2017-06-07 Single Family Traditional 1678 Fernstone Dr Acworth, GA 30101 $500,000 15,246 sq. ft.
2017-06-07 Single Family Traditional 608 Delphinium Blvd Acworth, GA 30102 $350,000 4,496 sq. ft. 12,763 sq. ft. $78
2017-06-07 Single Family 5957 Deer Springs Ln Acworth, GA 30101 $240,000 2,662 sq. ft. 36,155 sq. ft. $90
2017-06-07 Single Family Traditional 3818 Autumn View Ln Acworth, GA 30101 $190,000 2,142 sq. ft. 27,443 sq. ft. $89
2017-06-06 Single Family Ranch 5762 Forest Dr Acworth, GA 30102 $142,500 1,400 sq. ft. 20,909 sq. ft. $102
2017-06-06 Single Family Craftsman; Ranch 252 Lincolnwood Ln Acworth, GA 30101 $259,900 1,972 sq. ft. 17,860 sq. ft. $132
2017-06-06 Single Family Traditional 2533 Howell Farms Way Acworth, GA 30101 $275,000 3,476 sq. ft. 10,019 sq. ft. $79
2017-06-06 Single Family Traditional 3175 Forest Grove Trl Acworth, GA 30101 $260,000 2,772 sq. ft. 7,841 sq. ft. $94
2017-06-06 Single Family Cape Cod; Traditional 299 Hickory Lake Acworth, GA 30101 $220,000 1,872 sq. ft. 20,038 sq. ft. $118
2017-06-06 Single Family Ranch 208 Julia Lynn Ln Acworth, GA 30102 $185,000 9,583 sq. ft.
2017-06-05 Single Family 1280 Rolling Green Dr Acworth, GA 30102 $499,840 8,754 sq. ft. 87,120 sq. ft. $57
2017-06-05 Single Family Traditional 2743 Lake Park Ridge W Acworth, GA 30101 $192,000
2017-06-03 Single Family Colonial; Traditional 4235 Wexford Downs Way Acworth, GA 30101 $149,899 1,404 sq. ft. 6,098 sq. ft. $107
2017-06-03 Single Family Traditional 292 Hunt Creek Dr Acworth, GA 30101 $225,000 1,940 sq. ft. 13,939 sq. ft. $116
2017-06-02 Single Family Ranch; Traditional 132 Gallery Ct Acworth, GA 30101 $304,000 2,435 sq. ft. 15,246 sq. ft. $125
2017-06-02 Single Family Traditional 60 Fairway Overlook Dr Acworth, GA 30101 $539,900 16,553 sq. ft.
2017-06-02 Single Family Traditional 5614 Brookstone Dr Acworth, GA 30101 $310,000 13,809 sq. ft.
2017-06-02 Single Family Traditional 201 Thornwood Cir Acworth, GA 30102 $290,000 3,240 sq. ft. 14,985 sq. ft. $90
2017-06-02 Single Family Contemporary 4908 Heards Forest Acworth, GA 30102 $214,900 2,208 sq. ft. $97
2017-06-02 Single Family Cape Cod; Traditional 4516 Lake Park Dr Acworth, GA 30101 $180,000 1,446 sq. ft. 7,928 sq. ft. $124
2017-06-02 Single Family Cape Cod 271 Picketts Mill Run Acworth, GA 30101 $219,900 22,216 sq. ft.
2017-06-02 Single Family Traditional 269 Hunt Creek Dr Acworth, GA 30101 $230,000 2,584 sq. ft. 54,886 sq. ft. $89
2017-06-02 Single Family Traditional 5984 Downington Pt Acworth, GA 30101 $635,000 7,236 sq. ft. 17,424 sq. ft. $88
2017-06-02 Single Family Traditional 4722 Cavallon Dr Acworth, GA 30101 $425,000 5,001 sq. ft. 18,905 sq. ft. $85
2017-06-02 Single Family Traditional 229 Mcevers Branch Lndg Acworth, GA 30101 $315,000 3,028 sq. ft. 19,166 sq. ft. $104
2017-06-02 Single Family Traditional 1938 Little Creek Xing Acworth, GA 30101 $265,000 2,424 sq. ft. 17,424 sq. ft. $109
2017-06-02 Single Family Traditional 281 Shaw Dr Acworth, GA 30102 $224,000 1,682 sq. ft. 4,356 sq. ft. $133
2017-06-02 Single Family Traditional 3349 Mcever Park Circle Acworth, GA 30101 $210,000 11,761 sq. ft.
2017-06-02 Single Family Traditional 1384 Benbrooke Ln Acworth, GA 30101 $420,000 15,638 sq. ft.
2017-06-02 Single Family Contemporary; Country/Rustic 5705 Brookstone Walk Acworth, GA 30101 $369,000 16,291 sq. ft.
2017-06-02 Single Family Traditional 2667 Kellogg Creek Rd Acworth, GA 30102 $179,900 2,210 sq. ft. 21,954 sq. ft. $81
2017-06-02 Single Family Traditional 2779 Northgate Way Acworth, GA 30101 $175,000 1,432 sq. ft. 6,229 sq. ft. $122
2017-06-02 Single Family Ranch 5120 Hyatt Dr Acworth, GA 30101 $210,000 20,560 sq. ft.
2017-06-02 Single Family Craftsman; Traditional 149 Clubhouse Acworth, GA 30101 $344,888 4,046 sq. ft. 9,583 sq. ft. $85
2017-06-01 Single Family Traditional 94 Plantation Way Acworth, GA 30101 $205,000 2,291 sq. ft. 20,909 sq. ft. $89
2017-06-01 Single Family Ranch 5892 Shores Rd Acworth, GA 30101 $159,900 1,100 sq. ft. 30,492 sq. ft. $145
2017-06-01 Single Family Ranch; Traditional 1322 Trailwater Chse Acworth, GA 30102 $179,000 24,829 sq. ft.
2017-06-01 Single Family Country/Rustic 3709 Summit Dr Acworth, GA 30101 $129,900 16,422 sq. ft.
2017-06-01 Single Family Traditional 1706 Kenbrook Ct Acworth, GA 30101 $475,000 4,818 sq. ft. 17,685 sq. ft. $99
2017-06-01 Single Family Traditional 6082 Fairlong Pt Acworth, GA 30101 $350,000 2,652 sq. ft. 13,765 sq. ft. $132
2017-06-01 Single Family Traditional 4898 Arbor View Pkwy Acworth, GA 30101 $300,000 3,655 sq. ft. 8,276 sq. ft. $82
2017-06-01 Single Family Traditional 41 Heatherwood Trce Acworth, GA 30101 $285,000 2,408 sq. ft. 13,068 sq. ft. $118
2017-06-01 Single Family Traditional 307 Hunt Creek Dr Acworth, GA 30101 $248,900 2,437 sq. ft. 42,253 sq. ft. $102
2017-06-01 Single Family Traditional 4619 Carina Dr Acworth, GA 30101 $259,900 9,540 sq. ft.
2017-06-01 Single Family Traditional 149 Picketts Ferry Dr Acworth, GA 30101 $287,000 2,640 sq. ft. 21,780 sq. ft. $109
2017-06-01 Single Family Traditional 6140 Kenbrook Acworth, GA 30101 $349,900 14,810 sq. ft.
2017-06-01 Single Family Bungalow/Cottage; Craftsman 312 Mogie Ln Acworth, GA 30102 $335,000 3,001 sq. ft. 20,038 sq. ft. $112
2017-06-01 Single Family Craftsman 1209 Eagles Creek Ct Acworth, GA 30101 $650,000 5,151 sq. ft. 34,412 sq. ft. $126
2017-05-31 Single Family Contemporary 2858 Emerald Ln Acworth, GA 30102 $126,000 41,556 sq. ft.
2017-05-31 Single Family Ranch; Traditional 467 John Tate Rd Acworth, GA 30102 $359,900 87,120 sq. ft.
2017-05-31 Single Family Traditional 5400 Fripp Ln Acworth, GA 30101 $320,000 16,335 sq. ft.
2017-05-31 Single Family Traditional 4338 Oglethorpe Acworth, GA 30101 $1,350,000 8,924 sq. ft. 22,651 sq. ft. $151
2017-05-31 Single Family Traditional 44 Kingsford Xing Acworth, GA 30101 $374,900 3,390 sq. ft. 17,860 sq. ft. $111
2017-05-31 Single Family Traditional 103 Reunion Pl Acworth, GA 30102 $409,805
2017-05-31 Single Family Traditional 4781 Nandina Ct Acworth, GA 30102 $224,900 2,082 sq. ft. 20,909 sq. ft. $108
2017-05-31 Single Family Craftsman; Ranch 1030 Mars Hill Rd Acworth, GA 30101 $539,900 2,951 sq. ft. 35,284 sq. ft. $183
2017-05-31 Single Family Contemporary 126 Stone Mill Dr Acworth, GA 30101 $315,000 89,298 sq. ft.
2017-05-31 Single Family Craftsman 138 Highcrest Dr Acworth, GA 30101 $329,000 16,553 sq. ft.
2017-05-31 Single Family Traditional 230 Brookhaven Ct Acworth, GA 30102 $219,900 5,227 sq. ft.
2017-05-31 Single Family Traditional 1683 Fernstone Dr Acworth, GA 30101 $859,779 7,944 sq. ft. 25,700 sq. ft. $108
2017-05-30 Single Family Traditional 137 Harvest Ridge Acworth, GA 30102 $270,000 3,012 sq. ft. 15,682 sq. ft. $90
2017-05-30 Single Family Traditional 536 Highcrest Dr Acworth, GA 30101 $350,000 17,424 sq. ft.
2017-05-30 Single Family European; Traditional 4978 Aviary Dr Acworth, GA 30101 $599,900 33,541 sq. ft.
2017-05-30 Single Family Traditional 5818 Brookstone Walk Acworth, GA 30101 $399,900 14,462 sq. ft.
2017-05-30 Single Family Traditional 2723 Lake Park Ridge Acworth, GA 30101 $205,000 8,320 sq. ft.
2017-05-29 Single Family Ranch 4006 Snowshoe Ct Acworth, GA 30101 $159,900
2017-05-27 Single Family Traditional 447 Delphinium Pl Acworth, GA 30102 $360,000 4,105 sq. ft. 26,920 sq. ft. $88
2017-05-27 Single Family Ranch 4620 White Lake Acworth, GA 30101 $179,000 1,598 sq. ft. 24,394 sq. ft. $112
2017-05-27 Single Family Craftsman 114 Trellis Ct Acworth, GA 30101 $195,000 2,561 sq. ft. 43,560 sq. ft. $76
2017-05-27 Single Family Traditional 223 Vine Creek Acworth, GA 30101 $299,000 3,419 sq. ft. $87
2017-05-27 Single Family Ranch; Victorian 4623 Collins Ave Acworth, GA 30101 $435,000 3,288 sq. ft. 40,946 sq. ft. $132
2017-05-26 Single Family Traditional 5730 Brookstone Walk Acworth, GA 30101 $307,000 3,192 sq. ft. 13,112 sq. ft. $96
2017-05-26 Single Family Traditional 5715 Brookstone Walk Acworth, GA 30101 $319,900 3,121 sq. ft. 14,375 sq. ft. $102
2017-05-26 Single Family Traditional 611 Hay Meadow Pl Acworth, GA 30102 $315,000 4,769 sq. ft. 12,197 sq. ft. $66
2017-05-26 Single Family Ranch 4199 Dustin Dr Acworth, GA 30101 $155,000 1,406 sq. ft. 11,326 sq. ft. $110
2017-05-26 Single Family Traditional 4903 Woodbend Dr Acworth, GA 30101 $259,900 3,143 sq. ft. 20,473 sq. ft. $83
2017-05-25 Single Family Traditional 112 Reunion Pl Acworth, GA 30102 $306,606
2017-05-25 Single Family Craftsman 200 Shaw Dr Acworth, GA 30102 $290,000 7,405 sq. ft.
2017-05-25 Single Family Traditional 4845 Wilkie Way Acworth, GA 30102 $199,000 3,184 sq. ft. 9,148 sq. ft. $62
2017-05-25 Single Family Ranch; Traditional 6233 Emerald Springs Dr Acworth, GA 30102 $170,000 27,486 sq. ft.
2017-05-25 Single Family Traditional 5908 Downington Pl Acworth, GA 30101 $630,000 14,810 sq. ft.
2017-05-25 Single Family Traditional 4826 Summer Ln Acworth, GA 30102 $175,000 1,776 sq. ft. 15,594 sq. ft. $99
2017-05-24 Single Family Traditional 5001 Sandyhook Ct Acworth, GA 30102 $215,000 2,384 sq. ft. 8,146 sq. ft. $90
2017-05-24 Single Family Traditional 2728 Northgate Way Acworth, GA 30101 $209,900 2,421 sq. ft. 6,142 sq. ft. $87
2017-05-24 Single Family Traditional 220 Madison Ave Acworth, GA 30102 $200,000 1,984 sq. ft. 871 sq. ft. $101
2017-05-24 Single Family Craftsman; Traditional 1691 Tipton Way Acworth, GA 30101 $465,000 3,967 sq. ft. $117
2017-05-24 Single Family Ranch; Traditional 33 Waterstone Way Acworth, GA 30101 $329,900 2,958 sq. ft. 21,344 sq. ft. $112
2017-05-24 Single Family Traditional 593 Golf Crest Dr Acworth, GA 30101 $310,000 12,632 sq. ft.
2017-05-24 Single Family Craftsman; Traditional 421 Blue Sky Cir Acworth, GA 30102 $279,900 13,504 sq. ft.
2017-05-24 Single Family Traditional 1601 Hickory Cove Ct Acworth, GA 30102 $225,000 2,018 sq. ft. 7,797 sq. ft. $112
2017-05-24 Single Family Traditional 1061 Athena Ct Acworth, GA 30101 $175,000 10,149 sq. ft.
2017-05-24 Single Family Contemporary; Traditional 1081 Rolling Green Dr Acworth, GA 30102 $175,000 1,540 sq. ft. 24,350 sq. ft. $114
2017-05-24 Single Family Traditional 91 Springs Ct Acworth, GA 30101 $182,900 27,878 sq. ft.
2017-05-23 Single Family Contemporary; Craftsman 17 Terrace View Ct Acworth, GA 30101 $599,900 6,091 sq. ft. 20,473 sq. ft. $98
2017-05-23 Single Family Mobile Home 7370 Galts Ferry Rd Acworth, GA 30102 $85,000
2017-05-23 Single Family Traditional 201 Madison Ave Acworth, GA 30102 $169,900
2017-05-23 Single Family Traditional 6279 Fernstone Trl Acworth, GA 30101 $535,000 13,504 sq. ft.
2017-05-23 Single Family Traditional 2440 Camden Lake Vw Acworth, GA 30101 $349,900 3,840 sq. ft. 16,553 sq. ft. $91
2017-05-23 Single Family Traditional 6158 Fernstone Ct Acworth, GA 30101 $535,000 16,553 sq. ft.
2017-05-22 Single Family Craftsman 4484 Meadow Green Ln Acworth, GA 30101 $450,000 4,687 sq. ft. 30,056 sq. ft. $96
2017-05-22 Single Family Craftsman 111 Red Barn Ln Acworth, GA 30102 $154,999 1,656 sq. ft. 1,002 sq. ft. $94
2017-05-22 Single Family Traditional 4585 Howell Farms Rd Acworth, GA 30101 $265,900 2,778 sq. ft. 10,890 sq. ft. $96
2017-05-22 Single Family Ranch 2492 Jackie Moore Cir Acworth, GA 30102 $160,000 2,349 sq. ft. 22,913 sq. ft. $68
2017-05-20 Single Family Traditional 2821 Spotted Pony Trl Acworth, GA 30101 $230,000
2017-05-20 Single Family European; Traditional 6199 Talmadge Run Acworth, GA 30101 $949,000 8,033 sq. ft. 15,246 sq. ft. $118
2017-05-19 Single Family Traditional; Victorian 814 Picketts Xing Acworth, GA 30101 $359,900 3,808 sq. ft. 87,120 sq. ft. $95
2017-05-19 Single Family Craftsman; Traditional 323 Parc Xing Acworth, GA 30102 $260,000 2,136 sq. ft. 7,841 sq. ft. $122
2017-05-19 Single Family Traditional 402 John Tate Rd Acworth, GA 30102 $299,900 16,117 sq. ft.
2017-05-19 Single Family European 5111 Centennial Creek Vw Acworth, GA 30102 $219,900 1,569 sq. ft. 8,276 sq. ft. $140
2017-05-19 Single Family Traditional 3120 Westwood Dr Acworth, GA 30102 $149,000 1,314 sq. ft. 21,780 sq. ft. $113
2017-05-19 Single Family Traditional 6308 Benbrooke Overlook Acworth, GA 30101 $399,000
2017-05-19 Single Family Traditional 991 Flagstone Way Acworth, GA 30101 $269,900 2,650 sq. ft. $102
2017-05-19 Single Family Traditional 1161 Fords Lake Pl Acworth, GA 30101 $259,900 2,738 sq. ft. 12,850 sq. ft. $95
2017-05-19 Single Family Traditional 1994 Morning Walk Acworth, GA 30102 $234,900 2,372 sq. ft. 11,674 sq. ft. $99
2017-05-19 Single Family Traditional 4702 Ageratum Acworth, GA 30102 $299,900 3,722 sq. ft. 16,117 sq. ft. $81
2017-05-19 Single Family Contemporary 73 Musket Way Acworth, GA 30101 $294,900 2,919 sq. ft. 35,284 sq. ft. $101
2017-05-19 Single Family Traditional 2365 Camden Lake Cir Acworth, GA 30101 $297,500 2,884 sq. ft. 14,331 sq. ft. $103
2017-05-18 Single Family Ranch; Traditional 1538 Oakmont Dr Acworth, GA 30102 $155,000 1,377 sq. ft. 22,738 sq. ft. $113
2017-05-18 Single Family Traditional 4987 Shady Cove Ct Acworth, GA 30101 $487,900 5,923 sq. ft. 32,975 sq. ft. $82
2017-05-18 Single Family Traditional 6295 Braidwood Run Acworth, GA 30101 $344,900
2017-05-18 Single Family Traditional 113 Victory Commons Dr Acworth, GA 30102 $275,000 2,877 sq. ft. 10,019 sq. ft. $96
2017-05-18 Single Family Craftsman 194 Lilyfield Ln Acworth, GA 30101 $299,900 10,454 sq. ft.
2017-05-18 Single Family Traditional 4839 Windgate Trl Acworth, GA 30102 $217,900 2,678 sq. ft. 15,246 sq. ft. $81
2017-05-18 Single Family Traditional 391 Estates View Dr Acworth, GA 30101 $460,000 4,200 sq. ft. 15,246 sq. ft. $110
2017-05-18 Single Family Traditional 165 Shaw Acworth, GA 30102 $399,900 11,326 sq. ft.
2017-05-18 Single Family Cape Cod; Craftsman; Other (See Remarks); Traditional 136 Meadow Glen Way Acworth, GA 30101 $326,000 2,736 sq. ft. 40,075 sq. ft. $119
2017-05-18 Single Family Craftsman; Traditional 355 Allgood Trce Acworth, GA 30101 $247,740 2,811 sq. ft. 1,307 sq. ft. $88
2017-05-18 Single Family Craftsman 256 Shaw Dr Acworth, GA 30102 $199,900 1,844 sq. ft. 4,792 sq. ft. $108
2017-05-18 Single Family Traditional 4166 Elderberry Dr Acworth, GA 30101 $209,900 2,813 sq. ft. 11,326 sq. ft. $75
2017-05-17 Single Family Traditional 5736 Fairwood Dr Acworth, GA 30101 $329,900 3,725 sq. ft. 17,860 sq. ft. $89
2017-05-17 Single Family Traditional 443 Estates View Dr Acworth, GA 30101 $475,000 3,439 sq. ft. 25,700 sq. ft. $138
2017-05-17 Single Family Craftsman 1726 Tipton Ct Acworth, GA 30101 $389,900 3,471 sq. ft. 550,249,920 sq. ft. $112
2017-05-17 Single Family Traditional 4534 Peppermill Pl Acworth, GA 30101 $209,900 1,656 sq. ft. 19,254 sq. ft. $127
2017-05-16 Single Family Traditional 3940 Henry Ct Acworth, GA 30101 $84,900
2017-05-16 Single Family Ranch 846 Grist Mill Dr Acworth, GA 30101 $259,900 2,110 sq. ft. 87,991 sq. ft. $123
2017-05-16 Single Family Traditional 123 Misty View Ln Acworth, GA 30101 $279,000 21,344 sq. ft.
2017-05-16 Single Family Traditional 5049 Arbor View Pkwy Acworth, GA 30101 $289,900 2,901 sq. ft. 37,374 sq. ft. $100
2017-05-16 Single Family Traditional 134 Dabbs Xing Acworth, GA 30101 $302,387 3,370 sq. ft. $90
2017-05-16 Single Family Traditional 125 Dabbs Xing Acworth, GA 30101 $308,205 3,370 sq. ft. $91
2017-05-16 Single Family Traditional 702 Pineglen Dr Acworth, GA 30102 $245,000 4,356 sq. ft.
2017-05-16 Single Family European; Traditional 1354 Benbrooke Ln Acworth, GA 30101 $394,999 3,512 sq. ft. 14,505 sq. ft. $112
2017-05-16 Single Family Traditional 26 Lilyfield Ln Acworth, GA 30101 $243,000 2,373 sq. ft. 20,038 sq. ft. $102
2017-05-15 Single Family Traditional 5709 Brookstone Walk Acworth, GA 30101 $325,000 3,135 sq. ft. 15,769 sq. ft. $104
2017-05-15 Single Family Cape Cod 184 Springs Ct Acworth, GA 30101 $182,900 1,985 sq. ft. 20,038 sq. ft. $92
2017-05-15 Single Family European; Traditional 3521 Kellogg Creek Rd Acworth, GA 30102 $474,000 4,595 sq. ft. 152,460 sq. ft. $103
2017-05-15 Single Family Traditional 160 Ridge View Ct Acworth, GA 30101 $549,900 5,316 sq. ft. 18,731 sq. ft. $103
2017-05-15 Single Family Traditional 1115 Anemone Way Acworth, GA 30102 $300,000 3,018 sq. ft. 12,589 sq. ft. $99
2017-05-15 Single Family Traditional 4526 Balto Acworth, GA 30101 $244,999 2,816 sq. ft. 6,534 sq. ft. $87
2017-05-15 Single Family Ranch 1030 Taso Trl Acworth, GA 30101 $185,000 1,249 sq. ft. 8,494 sq. ft. $148
2017-05-14 Single Family Ranch 4017 Arrington Rd Acworth, GA 30102 $424,900 3,984 sq. ft. 196,020 sq. ft. $107
2017-05-13 Single Family Traditional 4111 Falcon Shores Ct Acworth, GA 30101 $210,000 1,716 sq. ft. 19,689 sq. ft. $122
2017-05-13 Single Family Craftsman; Traditional 6442 Farmview Acworth, GA 30101 $529,900 3,988 sq. ft. 27,007 sq. ft. $133
2017-05-13 Single Family Traditional 5425 Thornapple Ln Acworth, GA 30101 $450,000 30,492 sq. ft.
2017-05-12 Single Family Ranch 4995 Giles Rd Acworth, GA 30101 $368,800 3,326 sq. ft. 135,036 sq. ft. $111
2017-05-12 Single Family Ranch 3350 Hill Forest Trl Acworth, GA 30101 $595,000 166,835 sq. ft.
2017-05-12 Single Family Traditional 5737 Brookstone Walk Acworth, GA 30101 $349,999 3,153 sq. ft. 14,854 sq. ft. $111
2017-05-12 Single Family 1541 Brookshire Dr Acworth, GA 30102 $385,000 4,465 sq. ft. 91,476 sq. ft. $86
2017-05-12 Single Family Craftsman 136 Fitzroy Ln Acworth, GA 30101 $334,900 2,517 sq. ft. 40,075 sq. ft. $133
2017-05-12 Single Family Craftsman 110 Lilyfield Ln Acworth, GA 30101 $334,900 3,600 sq. ft. 10,454 sq. ft. $93
2017-05-12 Single Family Traditional 592 Olympic Way Acworth, GA 30102 $337,950
2017-05-12 Single Family Traditional 1263 Bentwater Dr Acworth, GA 30101 $269,900 3,187 sq. ft. 14,375 sq. ft. $85
2017-05-12 Single Family Traditional 121 Victory Commons Dr Acworth, GA 30102 $254,900 2,425 sq. ft. 14,375 sq. ft. $105
2017-05-12 Single Family Traditional 3360 Forest Grove Ct Acworth, GA 30101 $217,000 7,405 sq. ft.
2017-05-12 Single Family Traditional 5105 Acworth Landing Dr Acworth, GA 30101 $210,000
2017-05-12 Single Family Ranch 4548 Spring St Ext Acworth, GA 30101 $95,000
2017-05-11 Single Family Traditional 2215 Sprucewood Dr Acworth, GA 30101 $193,900 1,624 sq. ft. $119
2017-05-11 Single Family Traditional 4755 Arbor View Pkwy Acworth, GA 30101 $289,900 8,276 sq. ft.
2017-05-11 Single Family Traditional 6151 Fernstone Ct Acworth, GA 30101 $639,000 8,022 sq. ft. 16,553 sq. ft. $80
2017-05-11 Single Family Traditional 4231 Tattnall Run Acworth, GA 30101 $532,900 4,877 sq. ft. 19,602 sq. ft. $109
2017-05-11 Single Family Traditional 154 Dunlavin Dr Acworth, GA 30102 $310,000 2,980 sq. ft. 7,405 sq. ft. $104
2017-05-11 Single Family Ranch; Traditional 57 Heights Hollow Acworth, GA 30101 $265,000 4,136 sq. ft. 30,492 sq. ft. $64
2017-05-11 Single Family Traditional 1848 Hickory Creek Ct Acworth, GA 30102 $203,000 1,914 sq. ft. $106
2017-05-11 Single Family Traditional 3438 Hill Ln Acworth, GA 30102 $205,000 2,352 sq. ft. 27,181 sq. ft. $87
2017-05-11 Single Family Traditional 5139 Centennial Creek Vw Acworth, GA 30102 $189,900 1,414 sq. ft. 6,970 sq. ft. $134
2017-05-10 Single Family Ranch 2437 Centennial Hill Way Acworth, GA 30102 $223,000 10,019 sq. ft.
2017-05-10 Single Family Traditional 1882 Hedge Brooke Way Acworth, GA 30101 $320,000 16,074 sq. ft.
2017-05-10 Single Family Traditional 6243 Benbrooke Dr Acworth, GA 30101 $374,988 14,157 sq. ft.
2017-05-10 Single Family European 59 Cedarcrest Village Ct Acworth, GA 30101 $329,900 2,198 sq. ft. $150
2017-05-10 Single Family Mobile Home 171 Carolyn Ct Acworth, GA 30101 $64,900 1,674 sq. ft. 30,971 sq. ft. $39
2017-05-09 Single Family Traditional 1590 Grandwood Trl Acworth, GA 30101 $410,000 4,918 sq. ft. 16,030 sq. ft. $83
2017-05-09 Single Family Traditional 38 Denton Ct Acworth, GA 30101 $345,000 4,855 sq. ft. 11,326 sq. ft. $71
2017-05-09 Single Family Traditional 1810 Babbling Brook Acworth, GA 30102 $249,900 2,902 sq. ft. $86
2017-05-09 Single Family Bungalow/Cottage; Craftsman 4520 Silver Pt Acworth, GA 30101 $235,000 13,068 sq. ft.
2017-05-09 Single Family Traditional 5119 Verbena Dr Acworth, GA 30102 $305,000
2017-05-09 Single Family Craftsman 837 Harrison Acworth, GA 30102 $265,000
2017-05-08 Single Family European 2107 November Ct Acworth, GA 30102 $229,900
2017-05-08 Single Family Traditional 2719 Bowmore Ct Acworth, GA 30101 $564,999 4,171 sq. ft. 20,038 sq. ft. $135
2017-05-08 Single Family Traditional 1229 Parkwood Chase Acworth, GA 30102 $195,000 1,880 sq. ft. 13,504 sq. ft. $104
2017-05-08 Single Family Traditional 28 Thunder Ridge Ct Acworth, GA 30101 $295,000 2,468 sq. ft. 38,768 sq. ft. $120
2017-05-08 Single Family Craftsman; Traditional 34 Blazing Ridge Way Acworth, GA 30101 $545,000 6,158 sq. ft. 22,216 sq. ft. $88
2017-05-05 Single Family Traditional 214 Fairway View Xing Acworth, GA 30101 $274,500 3,237 sq. ft. $85
2017-05-05 Single Family Traditional 676 Oakside Pl Acworth, GA 30102 $159,900 1,584 sq. ft. $101
2017-05-05 Single Family Traditional 678 Oakside Pl Acworth, GA 30102 $159,900 1,584 sq. ft. $101
2017-05-05 Single Family Traditional 674 Oakside Pl Acworth, GA 30102 $162,900 1,584 sq. ft. $103
2017-05-05 Single Family Traditional 757 Carl Sanders Acworth, GA 30101 $1,499,900 10,943 sq. ft. 44,867 sq. ft. $137
2017-05-05 Single Family Traditional 6024 Addington Dr Acworth, GA 30101 $433,000 13,939 sq. ft.
2017-05-05 Single Family Traditional 5129 Cantrell Point Acworth, GA 30101 $349,000 1,632 sq. ft. 23,522 sq. ft. $214
2017-05-05 Single Family Traditional 5748 Fairwood Dr Acworth, GA 30101 $360,000 4,059 sq. ft. 13,983 sq. ft. $89
2017-05-05 Single Family Traditional 1365 Benbrooke Ln Acworth, GA 30101 $399,900 4,510 sq. ft. 12,589 sq. ft. $89
2017-05-05 Single Family Traditional 959 Bentwater Dr Acworth, GA 30101 $325,000 2,926 sq. ft. 18,731 sq. ft. $111
2017-05-05 Single Family Traditional 129 Dream Ct Acworth, GA 30102 $325,174
2017-05-05 Single Family Ranch; Traditional 2975 Mars Hill Rd Acworth, GA 30101 $290,000 3,452 sq. ft. 65,340 sq. ft. $84
2017-05-05 Single Family Traditional 5714 Brynwood Cir Acworth, GA 30101 $324,500 3,488 sq. ft. 16,509 sq. ft. $93
2017-05-05 Single Family Craftsman; Traditional 4528 Columbus Cir Acworth, GA 30101 $290,000 3,640 sq. ft. 6,970 sq. ft. $80
2017-05-05 Single Family Traditional 127 Dream Ct Acworth, GA 30102 $301,498
2017-05-05 Single Family Traditional 2518 Galloways Farm Dr Acworth, GA 30101 $310,000 3,611 sq. ft. 20,517 sq. ft. $86
2017-05-05 Single Family Traditional 101 Dream Ct Acworth, GA 30102 $267,938
2017-05-05 Single Family Traditional 79 Clubhouse Ln Acworth, GA 30101 $275,000 3,107 sq. ft. 9,148 sq. ft. $89
2017-05-05 Single Family Traditional 4747 Walkabout Creek Ct Acworth, GA 30101 $279,900 2,320 sq. ft. 56,889 sq. ft. $121
2017-05-05 Single Family Craftsman 4773 Logan Rd Acworth, GA 30101 $279,900
2017-05-05 Single Family Traditional 2273 Howell Farms Trl Acworth, GA 30101 $240,000 2,820 sq. ft. 9,583 sq. ft. $85
2017-05-05 Single Family Traditional 1167 Meadow Oaks Dr Acworth, GA 30102 $259,000 3,157 sq. ft. 14,680 sq. ft. $82
2017-05-05 Single Family Traditional 5043 Oak Hollow Dr Acworth, GA 30102 $259,900
2017-05-05 Single Family Traditional 5013 Centennial Commons Dr Acworth, GA 30102 $219,000 1,908 sq. ft. 9,583 sq. ft. $115
2017-05-05 Single Family Craftsman; Traditional 233 Grove Meadow Dr Acworth, GA 30101 $222,915 7,841 sq. ft.
2017-05-05 Single Family Traditional 5184 Valley Tarn Acworth, GA 30102 $200,000 2,202 sq. ft. 23,653 sq. ft. $91
2017-05-05 Single Family Ranch 3787 Mars Hill Rd Acworth, GA 30101 $185,000 25,700 sq. ft.
2017-05-05 Single Family Traditional 4609 Barkley Dr Acworth, GA 30101 $167,900 1,626 sq. ft. 43,560 sq. ft. $103
2017-05-03 Single Family Traditional 214 Brookhaven Ct Acworth, GA 30102 $190,000 1,690 sq. ft. 3,920 sq. ft. $112
2017-05-03 Single Family Traditional 5658 Fairwood Dr Acworth, GA 30101 $329,900 3,480 sq. ft. 18,469 sq. ft. $95
2017-05-03 Single Family Traditional 3452 Plantation Ridge Acworth, GA 30101 $190,000 36,285 sq. ft.
2017-05-03 Single Family Traditional 5393 Thornapple Ln Acworth, GA 30101 $415,000 3,424 sq. ft. 32,757 sq. ft. $121
2017-05-03 Single Family Traditional 4909 Baker Ridge Pl Acworth, GA 30101 $189,900 8,189 sq. ft.
2017-05-02 Single Family Traditional 4534 Amysaye Walk Acworth, GA 30101 $270,000 12,197 sq. ft.
2017-05-02 Single Family Craftsman; Ranch 26 Cedarcrest Village Ln Acworth, GA 30101 $339,900 4,792 sq. ft.
2017-05-01 Single Family 5307 Ferry Creek Ln Acworth, GA 30102 $165,000 1,438 sq. ft. $115
2017-05-01 Single Family Traditional 131 Dream Ct Acworth, GA 30102 $292,479
2017-05-01 Single Family Traditional 309 Shaw Dr Acworth, GA 30102 $276,359
2017-05-01 Single Family Traditional 122 Dream Ct Acworth, GA 30102 $242,642
2017-05-01 Single Family Traditional 5908 Priest Rd Acworth, GA 30102 $242,794
2017-05-01 Single Family Traditional 537 Olympic Way Acworth, GA 30102 $309,000 3,179 sq. ft. 7,405 sq. ft. $97
2017-05-01 Single Family Traditional 115 Dream Ct Acworth, GA 30102 $244,723
2017-05-01 Single Family Craftsman; Traditional 408 Blue Sky Cir Acworth, GA 30102 $253,955 8,276 sq. ft.
2017-05-01 Single Family Traditional 939 Rutledge Rd Acworth, GA 30101 $534,500 3,477 sq. ft. 87,991 sq. ft. $154
2017-05-01 Single Family Traditional 829 Gold Ct Acworth, GA 30102 $319,900 3,394 sq. ft. 8,276 sq. ft. $94
2017-04-30 Single Family Traditional 3588 Pine Branches Ct Acworth, GA 30102 $180,000
2017-04-30 Single Family Traditional 1115 Regiment Dr Acworth, GA 30101 $270,000 2,836 sq. ft. 20,822 sq. ft. $95
2017-04-28 Single Family Traditional 1385 Benbrooke Ln Acworth, GA 30101 $549,900 5,487 sq. ft. 15,464 sq. ft. $100
2017-04-28 Single Family European; Traditional 109 Springs Way Acworth, GA 30101 $235,000 25,700 sq. ft.
2017-04-28 Single Family Traditional 7459 Island Mill Rd Acworth, GA 30102 $775,000 5,406 sq. ft. 33,018 sq. ft. $143
2017-04-28 Single Family Ranch; Traditional 475 Graves Acworth, GA 30101 $359,222 4,664 sq. ft. 19,166 sq. ft. $77
2017-04-27 Single Family European; Traditional 3212 Hobsons Ridge Trl Acworth, GA 30101 $1,090,000 7,133 sq. ft. 80,150 sq. ft. $153
2017-04-27 Single Family Traditional 303 Vine Creek Dr Acworth, GA 30101 $359,900 4,741 sq. ft. 12,632 sq. ft. $76
2017-04-27 Single Family Ranch 5878 Lake Acworth Acworth, GA 30101 $225,000 25,265 sq. ft.
2017-04-27 Single Family Traditional 4420 Hickory Chase Dr Acworth, GA 30102 $200,000 11,892 sq. ft.
2017-04-27 Single Family Ranch 5858 Lake Acworth Acworth, GA 30101 $175,000 20,038 sq. ft.
2017-04-25 Single Family Traditional 39 Bulloch Cir Acworth, GA 30101 $799,900 7,049 sq. ft. $113
2017-04-25 Single Family Traditional 168 Sable Trace Trl Acworth, GA 30102 $254,000 2,352 sq. ft. 20,038 sq. ft. $108
2017-04-25 Single Family Traditional 577 Braidwood Dr Acworth, GA 30101 $309,000 17,772 sq. ft.
2017-04-24 Single Family Traditional 4804 Lake Park Ter Acworth, GA 30101 $189,900 1,737 sq. ft. 7,754 sq. ft. $109
2017-04-24 Single Family Traditional 5117 Wade Green Rd Acworth, GA 30102 $229,900 1,337 sq. ft. 101,495 sq. ft. $172
2017-04-23 Single Family Traditional 5480 Seminole Way Acworth, GA 30102 $145,000 1,390 sq. ft. 21,519 sq. ft. $104
2017-04-22 Single Family Craftsman 139 Clubhouse Ln Acworth, GA 30101 $309,900 9,583 sq. ft.
2017-04-21 Single Family Traditional 158 Rocky Point Ct Acworth, GA 30101 $449,900 3,766 sq. ft. 15,682 sq. ft. $119
2017-04-21 Single Family Traditional 6100 Collins Rd Acworth, GA 30101 $489,000 156,816 sq. ft.
2017-04-21 Single Family Ranch; Traditional 24 Allatoona Estates Dr Acworth, GA 30102 $625,000 3,748 sq. ft. 220,849 sq. ft. $167
2017-04-21 Single Family Traditional 3733 Brand Ct Acworth, GA 30101 $219,000 2,884 sq. ft. 12,632 sq. ft. $76
2017-04-21 Single Family Craftsman; Traditional 313 Thorncliff Way Acworth, GA 30101 $374,900 4,400 sq. ft. 18,731 sq. ft. $85
2017-04-21 Single Family 6296 James Dupree Ln Acworth, GA 30102 $99,900 87,120 sq. ft.
2017-04-20 Single Family Traditional 40 Bulloch Cir Acworth, GA 30101 $799,900 4,657 sq. ft. 25,265 sq. ft. $172
2017-04-20 Single Family Traditional 196 Mcevers Branch Lndg Acworth, GA 30101 $318,500 2,422 sq. ft. 17,860 sq. ft. $132
2017-04-20 Single Family Traditional 121 Dream Ct Acworth, GA 30102 $244,236 2,100 sq. ft. $116
2017-04-20 Single Family Traditional 5914 Priest Rd Acworth, GA 30102 $244,833 2,100 sq. ft. $117
2017-04-20 Single Family Traditional 110 Dream Ct Acworth, GA 30102 $248,251 2,174 sq. ft. $114
2017-04-20 Single Family Traditional 117 Dream Ct Acworth, GA 30102 $248,784 2,100 sq. ft. $118
2017-04-20 Single Family Traditional 5746 Fairwood Dr Acworth, GA 30101 $254,000 2,840 sq. ft. 14,549 sq. ft. $89
2017-04-20 Single Family Traditional 123 Dream Ct Acworth, GA 30102 $238,070 2,174 sq. ft. $110
2017-04-20 Single Family Traditional 3450 Hill Forest Trl Acworth, GA 30101 $1,150,000 303,178 sq. ft.
2017-04-20 Single Family European; Traditional 5226 Hill Rd Acworth, GA 30101 $950,000 37,462 sq. ft.
2017-04-20 Single Family Traditional 183 Nightwind Trce Acworth, GA 30101 $459,000
2017-04-20 Single Family Traditional 440 Cleburne Pl Acworth, GA 30101 $257,000
2017-04-20 Single Family Ranch; Traditional 4803 Cheri Lynn Rd Acworth, GA 30101 $149,900 2,065 sq. ft. 11,805 sq. ft. $73
2017-04-19 Single Family Traditional 510 Woodlore Ln Acworth, GA 30101 $365,000 30,056 sq. ft.
2017-04-18 Single Family Traditional 1581 Highway 92 Acworth, GA 30102 $1,548,720 1,955 sq. ft. 238,709 sq. ft. $792
2017-04-17 Single Family Traditional 4114 Mulligan Ln Acworth, GA 30101 $242,000 3,111 sq. ft. 11,979 sq. ft. $78
2017-04-17 Single Family Traditional 4474 Hamby Pond Pl Acworth, GA 30102 $229,900 2,546 sq. ft. 7,841 sq. ft. $90
2017-04-17 Single Family Traditional 313 Sable Trace Pass Acworth, GA 30102 $234,800 20,473 sq. ft.
2017-04-17 Single Family Traditional 4349 Clairesbrook Ln Acworth, GA 30101 $269,000 6,534 sq. ft.
2017-04-17 Single Family Traditional 2628 Lake Park Bend Acworth, GA 30101 $180,000 1,674 sq. ft. 8,146 sq. ft. $108
2017-04-17 Single Family Traditional 5194 Camden Lake Pkwy Acworth, GA 30101 $308,000 3,062 sq. ft. 12,894 sq. ft. $101
2017-04-17 Single Family Traditional 5500 Mccoy Rd Acworth, GA 30101 $150,000
2017-04-14 Single Family Ranch; Traditional 1283 Parkwood Chase Acworth, GA 30102 $169,900
2017-04-14 Single Family Traditional 4919 Woodbend Dr Acworth, GA 30101 $329,900 20,038 sq. ft.
2017-04-14 Single Family Cabin 20 Big K Dr Acworth, GA 30102 $275,000 1,200 sq. ft. $229
2017-04-13 Single Family Traditional 5108 Verbena Dr Acworth, GA 30102 $250,000 2,504 sq. ft. 11,848 sq. ft. $100
2017-04-13 Single Family Traditional 4727 Choctaw Ct Acworth, GA 30102 $250,000 29,403 sq. ft.
2017-04-13 Single Family Traditional 4980 Day Lily Way Acworth, GA 30102 $340,000 3,759 sq. ft. 11,064 sq. ft. $90
2017-04-13 Single Family Craftsman; Traditional 35 Harmony Grove Pkwy Acworth, GA 30101 $239,160 8,712 sq. ft.
2017-04-13 Single Family Craftsman; Traditional 3314 Littleport Ln Acworth, GA 30101 $679,000 33,977 sq. ft.
2017-04-13 Single Family Craftsman; Traditional 2318 Starr Lake Dr Acworth, GA 30101 $405,000 3,769 sq. ft. 18,295 sq. ft. $107
2017-04-13 Single Family Craftsman; Traditional 206 Cross Rd Acworth, GA 30102 $284,380 7,841 sq. ft.
2017-04-12 Single Family Traditional 5763 Emerald Oaks Ln Acworth, GA 30102 $269,975 22,216 sq. ft.
2017-04-12 Single Family Traditional 3425 Aviary Ln Acworth, GA 30101 $650,000 6,492 sq. ft. 35,284 sq. ft. $100
2017-04-12 Single Family Craftsman; Traditional 847 Whisperwood Trl Acworth, GA 30102 $259,145 4,356 sq. ft.
2017-04-11 Single Family Contemporary; Traditional 239 Mcever Branch Lndg Acworth, GA 30101 $298,900 3,401 sq. ft. 20,473 sq. ft. $88
2017-04-10 Single Family Craftsman; Traditional 257 Fairway Dr Acworth, GA 30101 $314,900 3,684 sq. ft. 11,761 sq. ft. $85
2017-04-10 Single Family Traditional 900 Bentwater Dr Acworth, GA 30101 $338,000 3,100 sq. ft. 16,117 sq. ft. $109
2017-04-10 Single Family Traditional 2100 Spanish Oaks Way Acworth, GA 30102 $239,900 8,189 sq. ft.
2017-04-10 Single Family Traditional 4510 Amysaye Walk Acworth, GA 30101 $257,500 15,682 sq. ft.
2017-04-09 Single Family Traditional 275 Gray Trl Acworth, GA 30101 $352,945 15,246 sq. ft.
2017-04-09 Single Family Traditional 164 Gray Trl Acworth, GA 30101 $310,472 3,370 sq. ft. $92
2017-04-08 Single Family Traditional 17 Lilyfield Ln Acworth, GA 30101 $244,700 1,909 sq. ft. 13,939 sq. ft. $128
2017-04-08 Single Family Ranch 2684 Windridge Dr Acworth, GA 30102 $208,000 21,344 sq. ft.
2017-04-07 Single Family Traditional 242 Thorncliff Lndg Acworth, GA 30101 $391,900 2,662 sq. ft. 12,197 sq. ft. $147
2017-04-06 Single Family Traditional 6339 Farmview Dr Acworth, GA 30101 $450,000 3,558 sq. ft. 19,602 sq. ft. $126
2017-04-06 Single Family Cabin 2100 Kellogg Creek Rd Acworth, GA 30102 $87,900 650 sq. ft. $135
2017-04-06 Single Family Traditional 5424 Thornapple Ln Acworth, GA 30101 $396,900 25,526 sq. ft.
2017-04-05 Single Family Ranch 1855 Pitner Rd Acworth, GA 30101 $599,900 1,766 sq. ft. 348,480 sq. ft. $340
2017-04-05 Single Family Craftsman 5860 Wildlife Trl Acworth, GA 30101 $525,000 20,909 sq. ft.
2017-04-05 Single Family Traditional 5198 Lupine Ln Acworth, GA 30102 $329,000 3,077 sq. ft. 13,373 sq. ft. $107
2017-04-05 Single Family Craftsman 1917 Tranquil Field Way Acworth, GA 30102 $319,700 8,712 sq. ft.
2017-04-04 Single Family Craftsman 4391 Oglethorpe Loop Acworth, GA 30101 $1,395,000 10,881 sq. ft. 31,363 sq. ft. $128
2017-04-04 Single Family Traditional 4553 Howell Farms Rd Acworth, GA 30101 $245,900 2,608 sq. ft. 9,583 sq. ft. $94
2017-04-04 Single Family 185 Smyrna St Acworth, GA 30101 $99,900 1,440 sq. ft. 10,019 sq. ft. $69
2017-04-03 Single Family European 4317 Oglethorpe Loop Acworth, GA 30101 $1,495,000 7,353 sq. ft. 41,818 sq. ft. $203
2017-04-03 Single Family Ranch 178 Springs Dr Acworth, GA 30101 $182,500 32,234 sq. ft.
2017-04-01 Single Family Contemporary 11 Whitehall Ct Acworth, GA 30101 $427,000
2017-04-01 Single Family 5703 Fallsbrook Ln Acworth, GA 30101 $365,000 14,898 sq. ft.
2017-03-31 Single Family Traditional 161 Cline Smith Rd Acworth, GA 30102 $450,000 217,800 sq. ft.
2017-03-31 Single Family Traditional 649 Phlox Way Acworth, GA 30102 $329,900 14,375 sq. ft.
2017-03-30 Single Family Traditional 305 Shaw Dr Acworth, GA 30102 $274,900 2,167 sq. ft. 4,792 sq. ft. $127
2017-03-30 Single Family Ranch; Traditional 4824 Rosebury Ln Acworth, GA 30101 $369,000 2,614 sq. ft.
2017-03-29 Single Family Traditional 4484 Cedarcrest Rd Acworth, GA 30101 $1,475,000 762,300 sq. ft.
2017-03-29 Single Family Traditional 112 Silverdale Ln Acworth, GA 30101 $850,000 4,838 sq. ft. 103,237 sq. ft. $176
2017-03-28 Single Family Traditional 500 Conifer Trce Acworth, GA 30102 $267,000 2,970 sq. ft. 13,068 sq. ft. $90
2017-03-28 Single Family Craftsman 122 Lilyfield Ln Acworth, GA 30101 $339,900 2,850 sq. ft. 10,454 sq. ft. $119
2017-03-27 Single Family Country/Rustic 3800 Kemp Ridge Acworth, GA 30101 $250,000 30,492 sq. ft.
2017-03-25 Single Family Ranch 4834 Rapids Cir Acworth, GA 30102 $169,900 1,219,680 sq. ft.
2017-03-24 Single Family Traditional 2111 Kendall Close Acworth, GA 30102 $259,900 2,908 sq. ft. 9,148 sq. ft. $89
2017-03-24 Single Family Traditional 16 Hawkstone Ct Acworth, GA 30101 $560,000 6,423 sq. ft. 25,265 sq. ft. $87
2017-03-23 Single Family Traditional 6259 Sharpsburg Ct Acworth, GA 30101 $284,000 2,926 sq. ft. 21,039 sq. ft. $97
2017-03-22 Single Family Traditional 5912 Priest Rd Acworth, GA 30102 $245,638 2,174 sq. ft. $113
2017-03-22 Single Family Traditional 5910 Priest Rd Acworth, GA 30102 $244,991 2,160 sq. ft. $113
2017-03-22 Single Family Traditional 6260 Cheatham Lake Acworth, GA 30101 $235,000 2,751 sq. ft. 19,384 sq. ft. $85
2017-03-22 Single Family Ranch; Traditional 436 Hicks Farm Rd Acworth, GA 30102 $450,000 6,307 sq. ft. 77,319 sq. ft. $71
2017-03-22 Single Family Traditional 1034 Alyssum Dr Acworth, GA 30102 $315,000 3,547 sq. ft. 18,252 sq. ft. $89
2017-03-22 Single Family Bungalow/Cottage; Traditional 4888 Allen Cir Acworth, GA 30102 $249,000
2017-03-21 Single Family 1363 Oakmont Dr Acworth, GA 30102 $135,000 1,402 sq. ft. 23,087 sq. ft. $96
2017-03-20 Single Family Traditional 6432 Old Stilesboro Rd Acworth, GA 30101 $575,000 4,393 sq. ft. 132,422 sq. ft. $131
2017-03-17 Single Family Craftsman; Traditional 26 Trillium Ln Acworth, GA 30101 $379,000 20,038 sq. ft.
2017-03-17 Single Family Traditional 4971 Thornwood Trce Acworth, GA 30102 $285,000 2,989 sq. ft. 17,555 sq. ft. $95
2017-03-17 Single Family Traditional 6251 Woodlore Dr Acworth, GA 30101 $269,900 3,804 sq. ft. 15,028 sq. ft. $71
2017-03-16 Single Family Traditional 523 Olympic Way Acworth, GA 30102 $270,000 7,405 sq. ft.
2017-03-16 Single Family Ranch 3550 Cheatham Rd Acworth, GA 30101 $660,000 43,560 sq. ft.
2017-03-16 Single Family 189 Dew Mist Ln Acworth, GA 30101 $430,000 5,055 sq. ft. 102,366 sq. ft. $85
2017-03-16 Single Family Craftsman; Traditional 208 Cross Rd Acworth, GA 30102 $287,630 7,841 sq. ft.
2017-03-13 Single Family Traditional 4512 Black Hills Dr Acworth, GA 30101 $255,900
2017-03-10 Single Family Traditional 337 Parc Xing Acworth, GA 30102 $250,000
2017-03-10 Single Family Traditional 31 Nightwind Trce Acworth, GA 30101 $300,000 2,347 sq. ft. 20,038 sq. ft. $128
2017-03-08 Single Family European 5721 Brookstone Dr Acworth, GA 30101 $499,900 15,987 sq. ft.
2017-03-08 Single Family Traditional 240 Bennett Farms Trl Acworth, GA 30102 $210,000
2017-03-07 Single Family Craftsman 188 Fairway Overlook Dr Acworth, GA 30101 $510,000 5,048 sq. ft. 15,682 sq. ft. $101
2017-03-07 Single Family Traditional 4891 Huntington Park Ct Acworth, GA 30101 $565,000 5,868 sq. ft. 20,038 sq. ft. $96
2017-03-06 Single Family Traditional 156 Dabbs Xing Acworth, GA 30101 $327,861 9,148 sq. ft.
2017-03-05 Single Family Traditional 245 Woodcreek Acworth, GA 30101 $215,000 2,102 sq. ft. 14,375 sq. ft. $102